Monatstabelle

Bitte in den Auwahlmenüs den gewünschte Zeiraum wählen und die Schaltfläche "Anfrage absenden" betätigen. Beginn der Aufzeichnung ist 2007 - Dezember. Vor diesem Zeitraum sind keine Daten verfügbar.

2018 - September

 

Datum Temperatur (°C) Luftdruck (hPa) Luftfeuchte (%) Regen
(l/m²)
Wind (km/h)
avg: min: max: avg: min: max: avg: min: max: avg: max:
01.09.2018 16,5 15,7 18,3 1017,0 1015,4 1017,9 89 85 90 32,1 1,1 11,1
02.09.2018 16,0 15,1 17,5 1017,4 1014,3 1018,8 90 89 90 9,1 1,0 6,8
03.09.2018 16,4 14,4 17,9 1013,0 1011,6 1015,7 90 90 90 11,4 1,1 4,3
04.09.2018 17,5 14,2 20,3 1011,9 1010,6 1013,2 87 78 91 1,4 3,1 9,2
05.09.2018 18,4 14,2 24,7 1014,4 1012,8 1015,9 79 57 90 0,1 4,1 13,4
06.09.2018 18,4 12,1 25,5 1011,3 1009,9 1014,1 75 53 90 0,0 2,1 9,2
07.09.2018 18,5 12,5 25,2 1012,3 1009,1 1014,5 78 58 90 0,0 2,3 9,3
08.09.2018 18,2 15,1 25,1 1018,5 1014,5 1019,2 75 52 86 0,0 4,1 14,6
09.09.2018 18,0 12,6 25,9 1020,2 1018,9 1021,5 75 50 89 0,0 1,4 8,9
10.09.2018 17,8 12,0 27,3 1020,8 1019,7 1022,2 71 45 90 0,0 3,1 8,7
11.09.2018 19,8 14,1 28,9 1021,7 1020,6 1023,2 68 41 85 0,0 3,2 12,4
12.09.2018 20,8 13,1 31,1 1019,3 1017,0 1022,6 69 43 88 0,0 2,1 10,5
13.09.2018 21,6 15,3 29,9 1014,5 1013,4 1017,4 72 51 87 0,0 1,9 5,6
14.09.2018 17,3 15,1 21,7 1016,4 1014,0 1017,6 87 75 89 14,8 1,0 12,1
15.09.2018 16,9 12,1 24,3 1020,8 1017,1 1022,2 82 60 90 0,1 2,6 8,0
16.09.2018 19,3 13,8 24,4 1021,2 1019,2 1023,8 78 65 89 0,0 5,4 10,9
17.09.2018 20,8 13,1 27,3 1019,6 1018,3 1022,1 73 60 90 0,0 4,7 10,9
18.09.2018 21,3 15,7 27,4 1017,8 1016,7 1019,4 64 48 86 0,0 10,7 18,2
19.09.2018 19,0 15,0 26,7 1019,1 1017,1 1020,4 78 57 86 0,0 0,6 10,3
20.09.2018 19,6 13,8 28,1 1018,4 1016,9 1021,1 74 49 90 0,0 1,5 7,2
21.09.2018 21,5 13,2 28,7 1012,3 1010,6 1016,9 70 52 90 0,0 6,0 17,1
22.09.2018 12,9 10,8 19,7 1019,3 1011,0 1021,0 77 48 87 3,6 3,8 23,7
23.09.2018 16,9 11,6 20,1 1010,7 1004,6 1019,3 76 63 86 0,0 5,4 13,8
24.09.2018 11,5 9,2 18,9 1023,6 1006,7 1026,9 62 50 79 0,7 7,7 29,0
25.09.2018 7,8 3,5 13,9 1033,0 1026,7 1035,5 66 45 79 0,0 7,0 21,1
26.09.2018 9,8 1,0 18,3 1031,6 1029,2 1035,9 63 42 89 0,0 2,4 13,5
27.09.2018 12,9 3,8 23,1 1025,3 1021,6 1029,6 68 40 88 0,0 2,6 8,2
28.09.2018 15,4 7,6 25,5 1017,3 1014,9 1021,6 70 41 85 0,0 1,8 11,6
29.09.2018 10,0 4,1 16,3 1023,2 1018,6 1024,6 64 40 78 0,0 6,3 18,5
avg. 16,9 1018,7 75   ---
  Summe Regen: 73,3  
 
Min-Datum 26.09.2018 23.09.2018 27.09.2018 --- ---
Min-Zeit 06:52 22:06 13:42 --- ---
Minimum 1,0 1004,6 40 --- ---
 

Max-Datum

12.09.2018 26.09.2018 04.09.2018 01.09.2018 24.09.2018
Max-Zeit 13:36 09:06 08:26 13:50 08:20
Maximum 31,1 1035,9 91 32,1 29,0
 

 

  Letztes Jahr
gleiches Monat
Eistage max < 0°C 0 0
Frosttage min < 0°C 0 0
Sommertage max >=25°C 14 2
Heiße Tage max >=30°C 1 0

 

<<< nach oben >>>